Time;durP1;ratioP1;P1;durP2;ratioP2;P2;SDS_P1;SDS_P2;PMS_P1;PMS_P2;Temp;Humidity;BMP_temperature;BMP_pressure;BME280_temperature;BME280_humidity;BME280_pressure;Samples;Min_cycle;Max_cycle;Signal;HPM_P1;HPM_P2
2022/08/22 00:01:02;;;;;;;8.32;4.35;;;;;;;25.15;57.38;94300.06;5098784;28;20035;-53
2022/08/22 00:03:53;;;;;;;6.25;3.75;;;;;;;25.09;57.31;94299.47;5103372;28;20028;-54
2022/08/22 00:06:28;;;;;;;5.35;3.90;;;;;;;25.22;56.85;94293.91;5073178;28;20742;-55
2022/08/22 00:09:17;;;;;;;6.72;4.35;;;;;;;25.12;57.41;94301.13;5102819;28;20747;-56
2022/08/22 00:12:08;;;;;;;6.47;5.03;;;;;;;25.11;57.45;94294.22;5102260;28;20035;-54
2022/08/22 00:14:36;;;;;;;5.55;4.40;;;;;;;25.18;57.04;94282.59;5080738;28;20040;-54
2022/08/22 00:17:23;;;;;;;5.93;4.32;;;;;;;25.15;56.97;94289.13;5098125;28;20043;-54
2022/08/22 00:20:03;;;;;;;5.70;4.20;;;;;;;25.09;57.16;94294.00;5064709;28;20036;-54
2022/08/22 00:22:58;;;;;;;4.82;4.10;;;;;;;25.08;57.37;94289.84;5080278;28;20775;-54
2022/08/22 00:25:58;;;;;;;5.97;4.03;;;;;;;25.15;57.07;94283.66;5080755;28;20055;-54
2022/08/22 00:28:32;;;;;;;5.75;4.70;;;;;;;25.06;57.34;94281.44;5096414;28;20135;-54
2022/08/22 00:31:36;;;;;;;6.60;4.45;;;;;;;25.11;56.95;94283.31;5098543;28;20081;-54
2022/08/22 00:34:21;;;;;;;7.68;4.85;;;;;;;25.07;57.18;94288.38;4999630;28;20065;-54
2022/08/22 00:36:55;;;;;;;5.32;4.75;;;;;;;25.03;57.60;94285.25;5091091;28;20175;-54
2022/08/22 00:39:52;;;;;;;7.45;5.47;;;;;;;25.01;57.50;94274.13;5099694;28;20062;-54
2022/08/22 00:42:20;;;;;;;6.40;5.20;;;;;;;25.12;57.20;94273.81;5067311;28;20096;-53
2022/08/22 00:45:07;;;;;;;6.88;5.45;;;;;;;24.98;57.70;94280.63;5099853;28;20044;-55
2022/08/22 00:47:58;;;;;;;8.27;6.13;;;;;;;25.03;57.58;94282.50;5100574;28;20066;-54
2022/08/22 00:50:55;;;;;;;9.98;6.57;;;;;;;24.97;57.38;94279.16;5101961;28;20576;-55
2022/08/22 00:53:36;;;;;;;9.13;6.80;;;;;;;25.11;57.32;94266.91;5071759;28;20121;-54
2022/08/22 00:56:08;;;;;;;8.52;7.15;;;;;;;25.10;57.28;94268.16;5101494;28;20040;-54
2022/08/22 00:58:59;;;;;;;8.70;6.53;;;;;;;25.01;57.64;94276.84;5082911;28;20048;-52
2022/08/22 01:01:30;;;;;;;9.40;6.97;;;;;;;24.93;57.77;94273.31;5075640;28;20038;-54
2022/08/22 01:04:06;;;;;;;9.15;6.28;;;;;;;24.86;57.92;94274.00;5102162;28;20015;-54
2022/08/22 01:06:40;;;;;;;9.02;7.03;;;;;;;24.95;57.60;94284.44;5101638;28;20417;-54
2022/08/22 01:09:25;;;;;;;8.27;6.70;;;;;;;24.96;57.44;94276.97;5079894;28;20051;-54
2022/08/22 01:11:59;;;;;;;8.75;6.50;;;;;;;25.03;57.38;94282.50;5084923;28;20613;-54
2022/08/22 01:14:36;;;;;;;7.90;6.47;;;;;;;24.95;57.71;94276.25;5096764;28;20040;-54
2022/08/22 01:17:47;;;;;;;9.43;7.30;;;;;;;25.00;57.56;94272.66;5066242;28;20240;-53
2022/08/22 01:20:42;;;;;;;8.68;6.90;;;;;;;24.94;57.36;94274.78;5077732;28;20047;-55
2022/08/22 01:23:29;;;;;;;9.13;7.20;;;;;;;24.86;57.81;94268.53;5080533;28;20110;-55
2022/08/22 01:26:21;;;;;;;7.70;6.70;;;;;;;24.88;57.71;94266.00;5101433;28;20032;-55
2022/08/22 01:29:12;;;;;;;10.85;7.50;;;;;;;24.89;57.50;94278.38;5093500;28;20506;-54
2022/08/22 01:31:56;;;;;;;9.60;7.25;;;;;;;24.94;57.81;94277.50;5100110;28;20566;-54
2022/08/22 01:34:43;;;;;;;8.43;7.03;;;;;;;24.99;57.26;94282.13;5079219;28;20027;-55
2022/08/22 01:37:36;;;;;;;9.43;7.35;;;;;;;24.47;56.87;94199.13;5086557;28;20046;-54
2022/08/22 01:40:20;;;;;;;8.48;7.10;;;;;;;25.00;57.25;94283.56;5081763;28;20092;-54
2022/08/22 01:43:36;;;;;;;9.23;7.20;;;;;;;24.89;57.75;94283.84;5085843;28;20582;-54
2022/08/22 01:46:11;;;;;;;8.57;7.07;;;;;;;24.94;57.39;94291.16;5067742;28;20047;-55
2022/08/22 01:48:41;;;;;;;9.82;7.38;;;;;;;24.95;57.50;94287.16;5099917;28;20459;-53
2022/08/22 01:51:37;;;;;;;8.90;7.13;;;;;;;24.95;57.08;94289.91;5103607;28;20075;-54
2022/08/22 01:54:41;;;;;;;7.88;7.07;;;;;;;24.90;57.41;94279.88;5076218;28;20040;-54
2022/08/22 01:57:07;;;;;;;8.75;7.15;;;;;;;24.92;57.30;94271.84;5090625;28;20108;-54
2022/08/22 01:59:36;;;;;;;9.25;7.50;;;;;;;24.97;57.05;94273.69;5080363;28;20449;-54
2022/08/22 02:02:15;;;;;;;10.52;7.72;;;;;;;24.87;57.59;94280.19;5072405;28;20031;-54
2022/08/22 02:04:51;;;;;;;10.05;7.70;;;;;;;24.79;57.28;94268.47;5080151;28;20043;-54
2022/08/22 02:07:40;;;;;;;10.23;7.68;;;;;;;24.81;57.66;94278.88;5076290;28;20673;-53
2022/08/22 02:10:23;;;;;;;9.48;7.50;;;;;;;24.74;58.01;94282.28;5097546;28;20019;-55
2022/08/22 02:13:01;;;;;;;8.95;7.50;;;;;;;24.81;57.88;94276.88;5081932;28;20020;-56
2022/08/22 02:15:39;;;;;;;10.35;8.30;;;;;;;24.78;57.61;94277.22;5103905;28;20023;-53
2022/08/22 02:18:04;;;;;;;11.90;8.00;;;;;;;24.84;57.67;94287.47;5090079;28;20109;-54
2022/08/22 02:20:36;;;;;;;10.05;7.53;;;;;;;24.78;57.62;94283.41;5095333;28;20497;-56
2022/08/22 02:23:14;;;;;;;10.50;8.38;;;;;;;24.79;57.37;94278.69;5100837;28;20067;-53
2022/08/22 02:26:01;;;;;;;11.63;8.15;;;;;;;24.88;57.18;94282.38;5090289;28;20103;-54
2022/08/22 02:28:57;;;;;;;11.25;8.50;;;;;;;24.49;57.10;94226.59;5101380;28;20043;-55
2022/08/22 02:31:44;;;;;;;11.20;8.50;;;;;;;24.93;56.87;94284.25;5065042;28;20624;-55
2022/08/22 02:34:39;;;;;;;11.48;8.50;;;;;;;24.91;56.82;94281.31;5068200;28;20055;-55
2022/08/22 02:37:20;;;;;;;11.25;8.65;;;;;;;24.78;57.13;94277.94;5078324;28;20114;-54
2022/08/22 02:40:03;;;;;;;11.40;8.98;;;;;;;24.72;57.22;94279.34;5076366;28;20541;-55
2022/08/22 02:42:39;;;;;;;11.25;8.82;;;;;;;24.59;57.61;94265.81;5077369;28;20101;-54
2022/08/22 02:45:37;;;;;;;11.18;8.77;;;;;;;24.78;57.36;94277.22;5060933;28;20051;-58
2022/08/22 02:48:11;;;;;;;11.70;8.60;;;;;;;24.73;57.55;94287.00;5066821;28;20056;-55
2022/08/22 02:50:44;;;;;;;10.85;8.85;;;;;;;24.83;57.10;94286.00;5087024;28;20097;-55
2022/08/22 02:53:45;;;;;;;12.13;8.73;;;;;;;24.78;57.39;94285.41;5061951;28;20048;-53
2022/08/22 02:56:17;;;;;;;11.80;8.93;;;;;;;24.69;57.38;94285.88;5102579;28;20040;-54
2022/08/22 02:59:29;;;;;;;10.40;8.30;;;;;;;24.74;57.25;94287.72;5060215;28;20078;-54
2022/08/22 03:01:55;;;;;;;10.90;8.68;;;;;;;24.78;57.00;94293.59;5068807;28;20039;-55
2022/08/22 03:04:29;;;;;;;11.55;8.85;;;;;;;24.83;56.82;94286.00;5085531;28;20100;-55
2022/08/22 03:07:00;;;;;;;10.95;8.57;;;;;;;24.73;57.02;94292.47;5103122;28;20038;-53
2022/08/22 03:09:46;;;;;;;11.30;8.95;;;;;;;24.63;57.26;94288.03;5094624;28;20067;-54
2022/08/22 03:12:47;;;;;;;10.73;8.63;;;;;;;24.65;56.92;94285.47;5086916;28;20032;-54
2022/08/22 03:15:24;;;;;;;10.45;8.77;;;;;;;24.64;57.07;94289.50;5089906;28;20514;-54
2022/08/22 03:17:58;;;;;;;11.93;8.63;;;;;;;24.73;56.85;94294.47;5094638;28;20068;-54
2022/08/22 03:20:49;;;;;;;11.45;8.73;;;;;;;24.59;57.09;94282.91;5085023;28;20046;-54
2022/08/22 03:23:25;;;;;;;12.25;8.75;;;;;;;24.66;57.04;94292.41;5029023;28;20566;-54
2022/08/22 03:25:50;;;;;;;11.00;8.40;;;;;;;24.63;57.23;94298.94;5100462;28;20512;-53
2022/08/22 03:28:25;;;;;;;12.60;9.02;;;;;;;24.60;57.07;94294.56;5096601;28;20047;-54
2022/08/22 03:30:50;;;;;;;13.55;8.85;;;;;;;24.67;57.17;94299.34;5079429;28;20026;-53
2022/08/22 03:33:18;;;;;;;11.45;8.98;;;;;;;24.62;57.06;94297.47;5103733;28;20027;-53
2022/08/22 03:35:43;;;;;;;11.85;9.18;;;;;;;24.61;56.87;94301.47;5103382;28;20474;-55
2022/08/22 03:38:30;;;;;;;11.65;9.25;;;;;;;24.59;57.08;94295.84;5102172;28;20217;-54
2022/08/22 03:41:13;;;;;;;12.18;8.75;;;;;;;24.58;57.10;94297.09;5078890;28;20121;-55
2022/08/22 03:44:17;;;;;;;11.00;8.82;;;;;;;24.67;56.88;94296.63;5084233;28;20543;-54
2022/08/22 03:47:00;;;;;;;12.02;8.65;;;;;;;24.58;57.20;94289.63;5035660;28;20108;-55
2022/08/22 03:50:03;;;;;;;11.80;9.20;;;;;;;24.58;57.00;94291.63;5100553;28;20093;-55
2022/08/22 03:53:07;;;;;;;10.48;8.57;;;;;;;24.61;56.74;94285.09;5097817;28;20659;-54
2022/08/22 03:56:03;;;;;;;11.32;8.35;;;;;;;24.56;56.75;94294.19;5092177;28;20036;-54
2022/08/22 03:58:35;;;;;;;11.13;8.70;;;;;;;24.51;56.91;94298.50;5098017;28;20468;-54
2022/08/22 04:01:32;;;;;;;12.55;8.85;;;;;;;24.60;56.98;94294.56;5083383;28;20469;-54
2022/08/22 04:04:09;;;;;;;11.65;8.35;;;;;;;24.63;56.82;94288.03;5078732;28;20032;-55
2022/08/22 04:06:47;;;;;;;11.90;8.43;;;;;;;24.67;56.86;94293.88;5096278;28;20130;-54
2022/08/22 04:09:54;;;;;;;12.25;8.32;;;;;;;24.53;56.97;94300.69;5096845;28;20047;-54
2022/08/22 04:12:28;;;;;;;10.95;8.75;;;;;;;24.57;56.73;94295.63;5098666;28;20052;-54
2022/08/22 04:15:13;;;;;;;11.50;8.73;;;;;;;24.52;56.88;94293.78;5090335;28;20043;-55
2022/08/22 04:18:22;;;;;;;11.85;8.80;;;;;;;24.43;57.22;94281.31;5097395;28;20044;-54
2022/08/22 04:21:16;;;;;;;11.80;8.63;;;;;;;24.63;56.48;94298.94;4993017;28;20046;-53
2022/08/22 04:24:09;;;;;;;12.88;9.05;;;;;;;24.54;56.84;94291.22;5086910;28;20405;-54
2022/08/22 04:27:01;;;;;;;13.30;8.93;;;;;;;24.48;57.20;94290.63;5095864;28;20524;-54
2022/08/22 04:29:40;;;;;;;12.63;9.10;;;;;;;24.50;57.27;94296.31;5085534;28;20047;-54
2022/08/22 04:32:14;;;;;;;11.95;8.23;;;;;;;24.48;56.99;94282.44;5056641;28;20028;-54
2022/08/22 04:35:00;;;;;;;12.85;8.52;;;;;;;24.62;56.80;94297.47;5059385;28;20104;-54
2022/08/22 04:37:46;;;;;;;13.10;9.25;;;;;;;24.62;56.91;94300.19;5099473;28;20035;-54
2022/08/22 04:40:28;;;;;;;11.15;8.23;;;;;;;24.63;56.82;94304.41;5094086;28;20048;-53
2022/08/22 04:42:57;;;;;;;12.32;8.30;;;;;;;24.66;56.77;94308.78;5058663;28;20115;-55
2022/08/22 04:45:47;;;;;;;10.65;8.30;;;;;;;24.67;56.91;94304.81;5063861;28;20138;-54
2022/08/22 04:48:33;;;;;;;10.85;8.10;;;;;;;24.72;56.68;94295.75;5079350;28;20450;-54
2022/08/22 04:51:07;;;;;;;11.38;8.75;;;;;;;24.64;57.37;94305.88;5067182;28;20493;-54
2022/08/22 04:54:01;;;;;;;9.90;7.53;;;;;;;24.68;56.78;94309.75;5065506;28;20089;-53
2022/08/22 04:56:47;;;;;;;11.32;8.85;;;;;;;24.68;57.10;94306.25;5079192;28;20043;-54
2022/08/22 04:59:17;;;;;;;11.73;8.60;;;;;;;24.72;56.70;94301.91;5097844;28;20061;-54
2022/08/22 05:01:59;;;;;;;11.55;8.32;;;;;;;24.68;57.19;94311.72;5095701;28;20486;-53
2022/08/22 05:04:26;;;;;;;11.68;8.75;;;;;;;24.77;56.78;94311.25;5096725;28;20027;-54
2022/08/22 05:07:09;;;;;;;11.70;8.68;;;;;;;24.74;57.16;94309.56;5082519;28;20028;-54
2022/08/22 05:09:36;;;;;;;11.63;7.97;;;;;;;24.69;57.10;94321.38;5084356;28;20020;-56
2022/08/22 05:12:07;;;;;;;10.45;8.00;;;;;;;24.72;57.12;94323.03;5083307;28;20024;-54
2022/08/22 05:14:38;;;;;;;11.60;8.70;;;;;;;24.64;57.11;94330.44;5077916;28;20057;-54
2022/08/22 05:17:04;;;;;;;10.98;8.25;;;;;;;24.71;57.35;94327.03;5099948;28;20031;-54
2022/08/22 05:19:33;;;;;;;10.65;7.78;;;;;;;24.65;57.15;94315.50;5063311;28;20039;-54
2022/08/22 05:21:59;;;;;;;9.47;7.60;;;;;;;24.67;57.37;94332.13;5080684;28;20022;-53
2022/08/22 05:24:37;;;;;;;10.68;8.73;;;;;;;24.77;57.52;94333.09;5065754;28;20063;-54
2022/08/22 05:27:10;;;;;;;10.77;7.85;;;;;;;24.82;57.50;94341.88;5072308;28;20115;-55
2022/08/22 05:29:37;;;;;;;12.00;8.98;;;;;;;24.78;57.96;94337.28;5079344;28;20039;-56
2022/08/22 05:32:05;;;;;;;11.45;8.05;;;;;;;24.91;57.49;94346.88;5078807;28;20032;-55
2022/08/22 05:34:34;;;;;;;12.68;8.75;;;;;;;24.95;57.24;94336.34;5064928;28;20434;-55
2022/08/22 05:37:13;;;;;;;13.35;8.55;;;;;;;24.92;57.27;94342.88;5082729;28;20020;-56
2022/08/22 05:39:40;;;;;;;13.50;8.73;;;;;;;25.11;56.98;94340.69;5090293;28;20500;-55
2022/08/22 05:42:10;;;;;;;12.55;8.07;;;;;;;25.16;56.63;94334.31;5056979;28;20035;-55
2022/08/22 05:44:36;;;;;;;11.88;8.68;;;;;;;25.21;56.70;94351.84;5078929;28;20122;-56
2022/08/22 05:47:20;;;;;;;11.50;8.18;;;;;;;25.27;56.30;94344.22;5080646;28;20118;-56
2022/08/22 05:50:04;;;;;;;10.95;8.40;;;;;;;25.28;56.68;94346.44;5082824;28;20122;-56
2022/08/22 05:53:00;;;;;;;12.65;8.25;;;;;;;25.27;56.47;94349.69;5085460;28;20050;-55
2022/08/22 05:55:27;;;;;;;12.32;8.32;;;;;;;25.47;56.00;94360.56;5070395;28;20035;-55
2022/08/22 05:58:20;;;;;;;11.13;8.25;;;;;;;25.49;55.78;94371.69;5075011;28;20032;-56
2022/08/22 06:00:49;;;;;;;11.65;8.45;;;;;;;25.50;55.71;94352.03;5082447;28;20031;-55
2022/08/22 06:03:26;;;;;;;11.77;8.27;;;;;;;25.59;55.31;94370.66;5071822;28;20040;-55
2022/08/22 06:05:52;;;;;;;10.73;8.43;;;;;;;25.68;55.43;94377.66;5093053;28;20039;-56
2022/08/22 06:08:39;;;;;;;11.95;8.60;;;;;;;25.70;55.15;94366.94;5069075;28;20056;-55
2022/08/22 06:11:12;;;;;;;12.27;8.80;;;;;;;25.79;55.29;94366.41;5095068;28;20587;-54
2022/08/22 06:13:40;;;;;;;10.93;8.73;;;;;;;25.90;55.22;94366.81;5079404;28;20054;-55
2022/08/22 06:16:20;;;;;;;11.70;8.43;;;;;;;25.70;55.26;94336.84;5073768;28;20035;-54
2022/08/22 06:18:49;;;;;;;10.85;8.60;;;;;;;25.94;54.69;94362.47;5083171;28;20035;-54
2022/08/22 06:21:24;;;;;;;12.75;8.85;;;;;;;25.98;54.74;94362.84;5062968;28;20055;-53
2022/08/22 06:24:00;;;;;;;12.38;8.55;;;;;;;25.86;54.82;94350.03;5083438;28;20036;-54
2022/08/22 06:26:29;;;;;;;12.48;8.48;;;;;;;26.06;54.28;94371.09;5064757;28;20047;-54
2022/08/22 06:28:57;;;;;;;11.00;8.30;;;;;;;26.16;54.02;94382.97;5064360;28;20486;-54
2022/08/22 06:31:28;;;;;;;12.43;8.50;;;;;;;26.14;54.07;94371.84;5076896;28;20108;-52
2022/08/22 06:34:03;;;;;;;11.80;8.48;;;;;;;26.16;53.69;94366.53;5098398;28;20485;-53
2022/08/22 06:36:29;;;;;;;10.27;7.95;;;;;;;26.28;53.42;94366.44;5074759;28;20024;-53
2022/08/22 06:39:15;;;;;;;11.45;9.10;;;;;;;26.27;53.62;94369.69;5098157;28;20058;-54
2022/08/22 06:41:50;;;;;;;11.93;8.48;;;;;;;26.24;53.65;94373.50;5099125;28;20044;-58
2022/08/22 06:44:19;;;;;;;12.05;8.55;;;;;;;26.22;54.09;94376.06;5067367;28;20096;-55
2022/08/22 06:46:45;;;;;;;11.87;9.17;;;;;;;26.13;54.65;94373.84;5078284;28;20062;-56
2022/08/22 06:49:11;;;;;;;11.90;9.05;;;;;;;25.54;54.41;94280.59;5100682;28;20043;-55
2022/08/22 06:51:36;;;;;;;9.68;7.97;;;;;;;26.11;54.32;94376.38;5084827;28;20088;-54
2022/08/22 06:54:03;;;;;;;11.48;8.40;;;;;;;25.93;54.38;94355.53;5081982;28;20031;-55
2022/08/22 06:56:38;;;;;;;10.93;7.28;;;;;;;25.79;54.10;94335.03;5065974;28;20036;-55
2022/08/22 06:59:08;;;;;;;11.80;7.32;;;;;;;25.93;54.35;94371.97;5063480;28;20043;-54
2022/08/22 07:01:38;;;;;;;10.95;8.25;;;;;;;25.88;53.89;94359.16;5064722;28;20054;-54
2022/08/22 07:04:05;;;;;;;10.63;7.80;;;;;;;25.27;53.68;94268.44;5068436;28;20107;-55
2022/08/22 07:06:34;;;;;;;10.45;7.70;;;;;;;25.67;53.75;94333.16;5083786;28;20042;-55
2022/08/22 07:08:59;;;;;;;10.65;7.63;;;;;;;25.80;53.92;94358.41;5081729;28;20040;-53
2022/08/22 07:11:27;;;;;;;9.95;7.05;;;;;;;25.90;54.00;94373.03;5101490;28;20035;-54
2022/08/22 07:13:58;;;;;;;9.30;6.97;;;;;;;25.53;53.64;94322.84;5102292;28;20506;-54
2022/08/22 07:16:29;;;;;;;9.00;7.20;;;;;;;25.75;53.56;94366.03;5081627;28;20093;-53
2022/08/22 07:18:54;;;;;;;8.80;7.20;;;;;;;25.57;53.59;94350.59;5084411;28;20030;-55
2022/08/22 07:21:29;;;;;;;12.00;7.28;;;;;;;25.07;53.91;94282.91;5103417;28;20020;-53
2022/08/22 07:23:55;;;;;;;9.27;7.38;;;;;;;24.97;53.87;94311.94;5099858;28;20125;-54
2022/08/22 07:26:54;;;;;;;11.73;7.07;;;;;;;25.79;53.96;94382.84;5082659;28;20358;-55
2022/08/22 07:29:36;;;;;;;10.75;7.22;;;;;;;25.78;53.98;94387.56;5083305;28;20064;-53
2022/08/22 07:32:11;;;;;;;11.07;7.47;;;;;;;25.77;53.79;94385.34;5079534;28;23095;-54
2022/08/22 07:35:04;;;;;;;18.90;8.93;;;;;;;25.15;54.38;94305.53;5099664;28;20100;-55
2022/08/22 07:37:38;;;;;;;18.20;9.05;;;;;;;25.56;55.02;94387.41;5082227;28;20036;-55
2022/08/22 07:40:17;;;;;;;13.50;7.60;;;;;;;25.64;54.97;94378.00;5085194;28;20049;-55
2022/08/22 07:42:53;;;;;;;16.20;7.95;;;;;;;25.73;54.90;94390.47;5085226;28;20520;-53
2022/08/22 07:45:24;;;;;;;18.33;8.25;;;;;;;25.68;54.85;94378.41;5067470;28;20051;-55
2022/08/22 07:48:12;;;;;;;12.27;7.95;;;;;;;25.66;54.65;94380.19;5099943;28;20126;-55
2022/08/22 07:51:03;;;;;;;11.85;7.85;;;;;;;25.42;54.48;94366.91;5095462;28;20127;-55
2022/08/22 07:53:30;;;;;;;10.10;6.85;;;;;;;25.68;53.99;94383.13;5079276;28;20051;-52
2022/08/22 07:55:55;;;;;;;10.90;6.88;;;;;;;25.15;53.79;94289.13;5083410;28;20113;-53
2022/08/22 07:58:22;;;;;;;10.93;7.13;;;;;;;25.78;54.01;94384.09;5056929;28;20155;-53
2022/08/22 08:00:48;;;;;;;11.93;6.95;;;;;;;25.64;54.63;94382.72;5083290;28;20035;-53
2022/08/22 08:03:13;;;;;;;11.95;6.80;;;;;;;25.64;54.21;94363.59;5066713;28;20055;-54
2022/08/22 08:05:41;;;;;;;15.10;8.05;;;;;;;25.71;54.65;94371.84;5084219;28;20107;-55
2022/08/22 08:08:11;;;;;;;11.80;7.45;;;;;;;25.61;54.73;94351.00;5078493;28;20124;-54
2022/08/22 08:10:38;;;;;;;11.35;7.47;;;;;;;25.81;54.69;94370.81;5081403;28;20032;-56
2022/08/22 08:13:06;;;;;;;11.77;7.60;;;;;;;25.42;54.71;94306.78;5064601;28;20078;-54
2022/08/22 08:15:33;;;;;;;12.02;7.78;;;;;;;25.72;54.81;94345.22;5082863;28;20049;-52
2022/08/22 08:18:05;;;;;;;12.10;7.00;;;;;;;25.76;54.93;94348.34;5082661;28;20126;-54
2022/08/22 08:20:32;;;;;;;11.10;7.30;;;;;;;25.06;54.31;94242.47;5067354;28;20063;-53
2022/08/22 08:22:58;;;;;;;12.68;7.40;;;;;;;25.80;54.76;94357.69;5065570;28;20082;-54
2022/08/22 08:25:28;;;;;;;10.13;6.93;;;;;;;25.86;53.88;94356.22;5066115;28;20496;-54
2022/08/22 08:30:54;;;;;;;9.27;7.10;;;;;;;25.43;53.92;94269.97;5084440;28;20699;-54
2022/08/22 08:33:21;;;;;;;11.48;6.82;;;;;;;25.94;54.21;94348.06;5078173;28;20059;-54
2022/08/22 08:35:51;;;;;;;9.23;6.68;;;;;;;26.01;53.93;94350.81;5063878;28;20047;-52
2022/08/22 08:38:19;;;;;;;10.00;6.85;;;;;;;25.46;53.58;94263.44;5080635;28;20070;-55
2022/08/22 08:40:51;;;;;;;10.48;6.90;;;;;;;26.14;53.48;94358.88;5061973;28;20039;-53
2022/08/22 08:43:33;;;;;;;8.75;6.50;;;;;;;26.18;53.38;94364.72;5101589;28;20036;-54
2022/08/22 08:46:11;;;;;;;9.90;7.15;;;;;;;26.19;53.04;94366.22;5100240;28;20718;-54
2022/08/22 08:49:04;;;;;;;10.20;7.18;;;;;;;26.22;52.86;94359.66;5082673;28;20051;-54
2022/08/22 08:51:33;;;;;;;9.23;7.03;;;;;;;26.23;52.73;94349.41;5098423;28;20060;-53
2022/08/22 08:54:10;;;;;;;9.05;6.22;;;;;;;26.25;52.52;94347.59;5102413;28;20035;-52
2022/08/22 08:56:42;;;;;;;10.43;7.00;;;;;;;26.20;52.78;94342.28;5102276;28;20449;-52
2022/08/22 08:59:36;;;;;;;9.90;7.20;;;;;;;26.04;52.24;94316.19;5083677;28;20418;-54
2022/08/22 09:02:26;;;;;;;9.23;6.97;;;;;;;25.63;52.53;94250.00;5077912;28;20036;-54
2022/08/22 09:05:01;;;;;;;11.45;7.22;;;;;;;26.37;52.72;94354.97;5069516;28;20035;-53
2022/08/22 09:07:47;;;;;;;8.50;7.13;;;;;;;26.25;52.22;94341.38;5097660;28;20036;-53
2022/08/22 09:10:37;;;;;;;11.82;7.63;;;;;;;26.36;52.76;94348.00;5096455;28;20036;-54
2022/08/22 09:13:20;;;;;;;10.32;7.10;;;;;;;26.41;52.41;94349.13;5100182;28;20028;-54
2022/08/22 09:16:10;;;;;;;15.15;7.90;;;;;;;26.42;52.63;94350.59;5089571;28;20360;-55
2022/08/22 09:18:51;;;;;;;10.30;7.53;;;;;;;26.24;52.22;94310.56;5099327;28;20040;-52
2022/08/22 09:21:25;;;;;;;9.13;7.28;;;;;;;26.47;52.18;94338.72;5082935;28;20090;-55
2022/08/22 09:24:09;;;;;;;11.23;7.45;;;;;;;26.49;51.98;94345.13;5074048;28;20511;-54
2022/08/22 09:26:45;;;;;;;9.80;7.47;;;;;;;26.51;52.19;94347.31;5097313;28;20092;-55
2022/08/22 09:29:29;;;;;;;9.82;7.45;;;;;;;26.50;51.68;94351.31;5078095;28;20051;-53
2022/08/22 09:32:04;;;;;;;11.15;7.22;;;;;;;26.25;51.44;94320.22;5099337;28;20063;-53
2022/08/22 09:34:33;;;;;;;11.18;7.68;;;;;;;26.56;51.58;94354.63;5096819;28;20036;-53
2022/08/22 09:37:28;;;;;;;9.82;7.15;;;;;;;26.22;51.83;94288.47;5059656;28;20031;-53
2022/08/22 09:40:07;;;;;;;11.77;7.18;;;;;;;26.47;51.60;94346.94;5082951;28;20063;-55
2022/08/22 09:42:44;;;;;;;9.63;7.70;;;;;;;26.54;51.47;94346.22;5099935;28;20067;-53
2022/08/22 09:45:31;;;;;;;10.88;7.50;;;;;;;26.55;51.50;94331.25;5099031;28;20051;-54
2022/08/22 09:47:58;;;;;;;11.52;7.47;;;;;;;26.44;51.09;94310.44;5092784;28;20254;-55
2022/08/22 09:50:54;;;;;;;9.48;6.97;;;;;;;26.83;50.59;94335.28;5097701;28;20040;-54
2022/08/22 09:53:57;;;;;;;9.52;7.28;;;;;;;26.98;50.43;94335.31;5072615;28;20036;-54
2022/08/22 09:56:38;;;;;;;9.65;6.90;;;;;;;27.01;50.20;94323.25;5104726;28;20135;-54
2022/08/22 09:59:13;;;;;;;9.23;7.30;;;;;;;26.70;50.61;94290.19;5072584;28;20036;-55
2022/08/22 10:01:40;;;;;;;11.40;6.90;;;;;;;26.52;50.23;94250.19;5059644;28;20048;-55
2022/08/22 10:04:06;;;;;;;7.57;6.70;;;;;;;27.26;49.19;94326.88;5081051;28;20020;-53
2022/08/22 10:06:43;;;;;;;9.38;7.65;;;;;;;27.20;49.61;94307.13;5098775;28;20475;-54
2022/08/22 10:09:30;;;;;;;9.73;6.72;;;;;;;27.35;49.59;94312.59;5079681;28;20035;-54
2022/08/22 10:12:04;;;;;;;8.75;6.63;;;;;;;27.13;49.14;94280.47;5070738;28;20031;-53
2022/08/22 10:14:57;;;;;;;9.30;6.53;;;;;;;27.39;49.37;94307.47;5068399;28;20028;-54
2022/08/22 10:17:30;;;;;;;8.88;6.78;;;;;;;27.37;48.43;94288.81;5101767;28;20031;-53
2022/08/22 10:20:12;;;;;;;9.93;7.55;;;;;;;27.63;48.49;94315.09;5069990;28;20036;-53
2022/08/22 10:22:46;;;;;;;8.23;6.60;;;;;;;27.66;48.69;94308.50;5084928;28;20031;-54
2022/08/22 10:25:17;;;;;;;10.38;6.82;;;;;;;27.83;48.00;94310.09;5106004;28;20541;-54
2022/08/22 10:28:12;;;;;;;10.15;6.78;;;;;;;27.91;47.86;94301.81;5101195;27;20034;-52
2022/08/22 10:30:46;;;;;;;9.52;7.07;;;;;;;27.32;47.83;94209.50;5101167;28;20126;-52
2022/08/22 10:33:24;;;;;;;8.80;7.15;;;;;;;27.96;48.22;94265.91;5098928;28;20054;-52
2022/08/22 10:35:49;;;;;;;11.70;7.00;;;;;;;28.17;47.18;94291.09;5071022;28;20031;-55
2022/08/22 10:38:51;;;;;;;9.07;7.05;;;;;;;28.09;47.17;94287.66;5104698;28;20442;-53
2022/08/22 10:41:43;;;;;;;11.23;7.18;;;;;;;28.17;47.06;94285.59;5005708;28;20048;-54
2022/08/22 10:44:20;;;;;;;9.70;6.90;;;;;;;27.90;47.27;94240.69;5085137;28;20035;-54
2022/08/22 10:47:22;;;;;;;8.48;7.25;;;;;;;27.97;46.58;94234.44;5082161;28;20571;-55
2022/08/22 10:49:51;;;;;;;9.35;7.30;;;;;;;28.31;46.58;94262.06;5055610;28;20046;-54
2022/08/22 10:52:26;;;;;;;8.80;7.00;;;;;;;28.36;46.46;94280.34;5087158;28;20055;-53
2022/08/22 10:55:02;;;;;;;9.30;6.97;;;;;;;27.42;46.54;94148.00;5066995;28;20478;-54
2022/08/22 10:57:47;;;;;;;10.82;7.68;;;;;;;28.37;46.92;94276.31;5102037;28;20470;-54
2022/08/22 11:00:28;;;;;;;9.00;6.65;;;;;;;28.39;47.02;94273.75;5095431;28;20090;-53
2022/08/22 11:03:20;;;;;;;9.60;6.63;;;;;;;28.21;47.43;94258.47;5102061;28;20048;-53
2022/08/22 11:05:46;;;;;;;8.65;6.57;;;;;;;28.30;47.88;94277.09;5097938;28;20218;-55
2022/08/22 11:08:56;;;;;;;8.63;6.78;;;;;;;28.21;47.60;94274.25;5063945;28;20036;-54
2022/08/22 11:11:36;;;;;;;8.38;6.25;;;;;;;28.25;47.03;94269.78;5080231;28;20074;-55
2022/08/22 11:14:25;;;;;;;10.18;6.68;;;;;;;27.99;46.82;94242.84;5096450;28;20809;-54
2022/08/22 11:17:09;;;;;;;8.38;6.50;;;;;;;28.11;47.44;94265.84;5085091;28;20044;-54
2022/08/22 11:19:47;;;;;;;8.02;6.40;;;;;;;28.12;47.45;94261.84;5101805;28;20441;-53
2022/08/22 11:22:32;;;;;;;9.13;6.55;;;;;;;28.06;47.41;94266.78;5096317;28;20421;-55
2022/08/22 11:25:16;;;;;;;10.70;6.65;;;;;;;28.05;47.94;94259.81;5082277;28;20050;-58
2022/08/22 11:28:00;;;;;;;9.13;6.57;;;;;;;28.05;47.58;94250.88;5101947;28;20027;-55
2022/08/22 11:30:37;;;;;;;8.63;6.95;;;;;;;28.02;47.50;94255.44;5095130;28;20059;-54
2022/08/22 11:33:31;;;;;;;9.07;6.70;;;;;;;27.83;47.48;94230.50;5097916;28;20032;-52
2022/08/22 11:36:09;;;;;;;9.75;7.32;;;;;;;27.94;48.16;94263.00;5067742;28;20119;-51
2022/08/22 11:39:12;;;;;;;10.45;6.88;;;;;;;27.87;47.94;94269.25;5082358;28;20052;-55
2022/08/22 11:41:43;;;;;;;11.25;7.25;;;;;;;27.90;48.73;94254.41;5097083;28;20107;-55
2022/08/22 11:44:26;;;;;;;11.23;7.90;;;;;;;27.22;47.34;94167.50;5098245;28;20188;-53
2022/08/22 11:46:54;;;;;;;9.48;7.05;;;;;;;26.80;47.92;94121.94;5064559;28;20055;-53
2022/08/22 11:50:10;;;;;;;9.50;7.55;;;;;;;27.63;47.60;94254.75;5050949;28;20409;-54
2022/08/22 11:52:57;;;;;;;9.55;7.10;;;;;;;27.67;48.31;94255.06;5058104;28;20114;-54
2022/08/22 11:55:31;;;;;;;9.73;7.07;;;;;;;27.36;48.16;94209.84;5096596;28;20067;-53
2022/08/22 11:58:18;;;;;;;9.13;7.55;;;;;;;27.64;48.05;94250.69;5084400;28;20027;-53
2022/08/22 12:00:53;;;;;;;10.40;7.10;;;;;;;26.89;48.24;94160.50;5070785;28;20043;-53
2022/08/22 12:03:18;;;;;;;9.60;7.50;;;;;;;27.60;48.50;94250.38;5104022;28;20580;-53
2022/08/22 12:05:56;;;;;;;9.80;7.45;;;;;;;27.63;49.52;94252.72;5101053;28;20071;-54
2022/08/22 12:08:39;;;;;;;11.20;6.88;;;;;;;27.63;49.04;94243.78;5096668;28;20112;-54
2022/08/22 12:11:21;;;;;;;9.45;7.05;;;;;;;27.65;49.33;94254.91;5095059;28;20051;-53
2022/08/22 12:13:50;;;;;;;8.68;7.20;;;;;;;27.46;50.12;94224.44;5082656;28;20028;-54
2022/08/22 12:16:36;;;;;;;8.93;7.18;;;;;;;27.66;50.47;94242.66;5068124;28;20050;-54
2022/08/22 12:19:39;;;;;;;9.15;7.43;;;;;;;27.66;50.10;94234.44;5099051;28;20306;-53
2022/08/22 12:22:27;;;;;;;9.02;7.45;;;;;;;27.63;50.27;94235.53;5094785;28;20020;-54
2022/08/22 12:25:39;;;;;;;10.50;7.68;;;;;;;27.22;50.75;94181.22;5097597;28;20034;-54
2022/08/22 12:28:13;;;;;;;9.75;7.60;;;;;;;27.55;50.80;94232.09;5075008;28;20107;-53
2022/08/22 12:30:44;;;;;;;11.40;7.55;;;;;;;27.59;51.21;94237.94;5098125;27;20415;-54